Time;durP1;ratioP1;P1;durP2;ratioP2;P2;SDS_P1;SDS_P2;PMS_P1;PMS_P2;Temp;Humidity;BMP_temperature;BMP_pressure;BME280_temperature;BME280_humidity;BME280_pressure;Samples;Min_cycle;Max_cycle;Signal;HPM_P1;HPM_P2
2023/12/25 00:02:22;;;;;;;4.30;2.60;;;8.20;99.90;;;;;;5034004;28;20254;-79
2023/12/25 00:05:10;;;;;;;3.40;2.30;;;8.30;99.90;;;;;;5034704;28;20711;-78
2023/12/25 00:07:57;;;;;;;2.53;2.20;;;8.30;99.90;;;;;;5033593;28;20736;-79
2023/12/25 00:10:46;;;;;;;2.93;2.37;;;8.40;99.90;;;;;;5034827;28;20206;-78
2023/12/25 00:13:34;;;;;;;2.83;2.27;;;8.50;99.90;;;;;;5035063;28;20694;-78
2023/12/25 00:16:25;;;;;;;3.97;2.50;;;8.50;99.90;;;;;;5035048;28;20722;-78
2023/12/25 00:19:13;;;;;;;5.33;2.60;;;8.50;99.90;;;;;;5033464;28;20196;-79
2023/12/25 00:22:01;;;;;;;3.73;2.60;;;8.50;99.90;;;;;;5034811;28;20208;-78
2023/12/25 00:24:48;;;;;;;3.47;2.60;;;8.60;99.90;;;;;;5033697;28;20630;-79
2023/12/25 00:27:36;;;;;;;2.87;2.30;;;8.60;99.90;;;;;;5034280;28;20224;-78
2023/12/25 00:30:23;;;;;;;3.30;2.33;;;8.70;99.90;;;;;;5034218;28;20195;-79
2023/12/25 00:33:11;;;;;;;3.77;2.70;;;8.80;99.90;;;;;;5033472;28;20193;-79
2023/12/25 00:35:59;;;;;;;3.57;2.83;;;8.80;99.90;;;;;;5032363;28;20201;-79
2023/12/25 00:38:46;;;;;;;3.40;2.87;;;8.90;99.90;;;;;;5032889;28;20201;-79
2023/12/25 00:41:34;;;;;;;3.70;2.73;;;9.00;99.90;;;;;;5033651;28;20308;-79
2023/12/25 00:44:22;;;;;;;3.80;2.73;;;9.00;99.90;;;;;;5033316;28;20760;-79
2023/12/25 00:47:09;;;;;;;3.60;2.70;;;9.00;99.90;;;;;;5033898;28;20204;-79
2023/12/25 00:49:57;;;;;;;4.50;2.90;;;9.10;99.90;;;;;;5033834;28;20562;-79
2023/12/25 00:52:45;;;;;;;3.57;2.60;;;9.30;99.90;;;;;;5032186;28;20199;-79
2023/12/25 00:55:32;;;;;;;4.17;2.73;;;9.40;99.90;;;;;;5033151;28;20198;-79
2023/12/25 00:58:20;;;;;;;4.17;2.93;;;9.30;99.90;;;;;;5034543;28;20646;-79
2023/12/25 01:01:08;;;;;;;3.27;2.50;;;9.40;99.90;;;;;;5034005;28;20193;-79
2023/12/25 01:03:55;;;;;;;3.27;2.50;;;9.40;99.90;;;;;;5033225;28;20228;-79
2023/12/25 01:06:43;;;;;;;4.33;2.70;;;9.40;99.90;;;;;;5033199;28;20234;-79
2023/12/25 01:09:30;;;;;;;3.33;2.70;;;9.40;99.90;;;;;;5032847;28;20193;-79
2023/12/25 01:12:18;;;;;;;3.37;3.00;;;9.30;99.90;;;;;;5032798;28;20294;-79
2023/12/25 01:15:06;;;;;;;3.67;2.60;;;9.30;99.90;;;;;;5032303;28;20204;-79
2023/12/25 01:17:53;;;;;;;3.87;2.80;;;9.30;99.90;;;;;;5032355;28;20194;-78
2023/12/25 01:20:43;;;;;;;3.90;3.00;;;9.30;99.90;;;;;;5033089;28;20198;-78
2023/12/25 01:23:31;;;;;;;5.30;3.07;;;9.30;99.90;;;;;;5032121;28;20703;-78
2023/12/25 01:26:18;;;;;;;3.70;3.10;;;9.20;99.90;;;;;;5033062;28;20225;-78
2023/12/25 01:29:06;;;;;;;3.60;2.97;;;9.30;99.90;;;;;;5033187;28;20296;-77
2023/12/25 01:31:53;;;;;;;4.40;3.27;;;9.30;99.90;;;;;;5032280;28;20683;-78
2023/12/25 01:34:41;;;;;;;3.87;3.07;;;9.30;99.90;;;;;;5031328;28;20195;-79
2023/12/25 01:37:29;;;;;;;3.70;2.90;;;9.40;99.90;;;;;;5032392;28;20196;-79
2023/12/25 01:40:17;;;;;;;3.77;2.67;;;9.30;99.90;;;;;;5030438;28;20199;-78
2023/12/25 01:43:04;;;;;;;3.57;2.40;;;9.30;99.90;;;;;;5031255;28;20688;-79
2023/12/25 01:45:51;;;;;;;2.87;2.00;;;9.40;99.90;;;;;;5032818;28;20198;-78
2023/12/25 01:48:41;;;;;;;4.53;1.80;;;9.40;99.90;;;;;;5031890;28;20241;-78
2023/12/25 01:51:28;;;;;;;2.07;1.63;;;9.40;99.90;;;;;;5031615;28;20197;-79
2023/12/25 01:54:16;;;;;;;1.70;1.30;;;9.40;99.90;;;;;;5031622;28;20202;-79
2023/12/25 01:57:04;;;;;;;1.40;1.10;;;9.40;99.90;;;;;;5032467;28;20228;-79
2023/12/25 01:59:52;;;;;;;1.70;1.00;;;9.50;99.90;;;;;;5031238;28;20243;-79
2023/12/25 02:02:40;;;;;;;1.43;1.00;;;9.50;99.90;;;;;;5031724;28;20230;-78
2023/12/25 02:05:28;;;;;;;1.87;0.90;;;9.70;99.90;;;;;;5032354;28;20232;-79
2023/12/25 02:08:17;;;;;;;1.23;0.90;;;9.70;99.90;;;;;;5032421;28;20292;-79
2023/12/25 02:11:04;;;;;;;1.00;0.90;;;9.60;99.90;;;;;;5033255;28;20228;-79
2023/12/25 02:13:55;;;;;;;1.43;0.97;;;9.60;99.90;;;;;;5031963;28;20208;-79
2023/12/25 02:16:43;;;;;;;1.57;1.00;;;9.50;99.90;;;;;;5030511;28;20208;-79
2023/12/25 02:19:38;;;;;;;1.27;0.93;;;9.40;99.90;;;;;;5031673;28;20249;-79
2023/12/25 02:22:26;;;;;;;2.60;0.90;;;9.30;99.90;;;;;;5033463;28;20217;-79
2023/12/25 02:25:33;;;;;;;0.80;0.80;;;9.20;99.90;;;;;;5032523;28;20194;-78
2023/12/25 02:28:22;;;;;;;1.57;0.90;;;9.10;99.90;;;;;;5032812;28;20318;-78
2023/12/25 02:31:10;;;;;;;2.20;0.93;;;9.10;99.90;;;;;;5044321;28;20200;-78
2023/12/25 02:33:57;;;;;;;2.50;1.23;;;8.90;99.90;;;;;;5031522;28;20193;-79
2023/12/25 02:36:45;;;;;;;2.53;1.30;;;8.90;99.90;;;;;;5032175;28;20221;-78
2023/12/25 02:39:33;;;;;;;2.00;1.13;;;8.90;99.90;;;;;;5030449;28;20657;-78
2023/12/25 02:42:20;;;;;;;2.20;1.40;;;8.90;99.90;;;;;;5033243;28;20241;-78
2023/12/25 02:45:08;;;;;;;2.53;1.30;;;8.90;99.90;;;;;;5032176;28;20278;-79
2023/12/25 02:47:55;;;;;;;3.50;1.47;;;8.90;99.90;;;;;;5031509;28;20576;-78
2023/12/25 02:50:44;;;;;;;1.63;1.20;;;8.90;99.90;;;;;;5031520;28;20274;-79
2023/12/25 02:53:31;;;;;;;1.73;1.33;;;8.90;99.90;;;;;;5032424;28;20206;-78
2023/12/25 02:56:19;;;;;;;1.50;1.00;;;8.90;99.90;;;;;;5032497;28;20216;-79
2023/12/25 02:59:06;;;;;;;2.30;1.10;;;8.90;99.90;;;;;;5033336;28;20569;-78
2023/12/25 03:01:54;;;;;;;2.27;1.10;;;8.80;99.90;;;;;;5030754;28;20209;-78
2023/12/25 03:04:41;;;;;;;1.97;0.87;;;8.80;99.90;;;;;;5031773;28;20222;-78
2023/12/25 03:07:29;;;;;;;2.40;0.97;;;8.80;99.90;;;;;;5033061;28;20652;-79
2023/12/25 03:10:16;;;;;;;1.50;0.73;;;8.80;99.90;;;;;;5030305;28;20196;-78
2023/12/25 03:13:04;;;;;;;2.00;0.77;;;8.80;99.90;;;;;;5033304;28;20201;-78
2023/12/25 03:15:51;;;;;;;1.73;0.80;;;8.80;99.90;;;;;;5031862;28;20202;-78
2023/12/25 03:18:39;;;;;;;2.13;0.83;;;8.70;99.90;;;;;;5031235;28;20281;-78
2023/12/25 03:21:27;;;;;;;1.67;0.80;;;8.70;99.90;;;;;;5032335;28;20209;-79
2023/12/25 03:24:14;;;;;;;1.60;0.60;;;8.70;99.90;;;;;;5032272;28;20228;-79
2023/12/25 03:27:02;;;;;;;2.00;0.67;;;8.70;99.90;;;;;;5032806;28;20304;-79
2023/12/25 03:29:50;;;;;;;0.70;0.50;;;8.70;99.90;;;;;;5030616;28;20835;-79
2023/12/25 03:32:39;;;;;;;0.87;0.70;;;8.70;99.90;;;;;;5031696;28;20201;-79
2023/12/25 03:35:26;;;;;;;1.90;0.60;;;8.70;99.90;;;;;;5031253;28;20325;-79
2023/12/25 03:38:14;;;;;;;1.30;0.77;;;8.70;99.90;;;;;;5031683;28;20194;-79
2023/12/25 03:41:02;;;;;;;2.27;0.70;;;8.80;99.90;;;;;;5031608;28;20218;-79
2023/12/25 03:43:49;;;;;;;0.83;0.70;;;8.70;99.90;;;;;;5033162;28;20308;-79
2023/12/25 03:46:37;;;;;;;1.53;0.80;;;8.60;99.90;;;;;;5035114;28;20544;-79
2023/12/25 03:49:24;;;;;;;1.57;0.77;;;8.70;99.90;;;;;;5034477;28;20568;-79
2023/12/25 03:52:12;;;;;;;1.50;0.70;;;8.70;99.90;;;;;;5034449;28;20201;-79
2023/12/25 03:55:00;;;;;;;0.90;0.70;;;8.70;99.90;;;;;;5035519;28;20334;-79
2023/12/25 03:57:47;;;;;;;1.10;0.80;;;8.70;99.90;;;;;;5035761;28;20271;-79
2023/12/25 04:00:35;;;;;;;1.73;0.90;;;8.70;99.90;;;;;;5033758;28;20199;-79
2023/12/25 04:03:23;;;;;;;1.93;0.90;;;8.70;99.90;;;;;;5034726;28;20223;-79
2023/12/25 04:06:10;;;;;;;1.03;0.80;;;8.60;99.90;;;;;;5035278;28;20674;-79
2023/12/25 04:08:58;;;;;;;0.80;0.77;;;8.60;99.90;;;;;;5034957;28;20224;-79
2023/12/25 04:11:45;;;;;;;2.07;0.70;;;8.70;99.90;;;;;;5035163;28;20215;-79
2023/12/25 04:14:39;;;;;;;1.30;0.80;;;8.60;99.90;;;;;;5034574;28;20198;-79
2023/12/25 04:17:28;;;;;;;1.33;0.80;;;8.70;99.90;;;;;;5033914;28;20571;-80
2023/12/25 04:20:15;;;;;;;2.67;1.00;;;8.70;99.90;;;;;;5034474;28;20197;-79
2023/12/25 04:23:03;;;;;;;1.23;0.63;;;8.70;99.90;;;;;;5034893;28;20230;-79
2023/12/25 04:25:51;;;;;;;3.00;0.90;;;8.70;99.90;;;;;;5034263;28;20774;-80
2023/12/25 04:28:38;;;;;;;3.13;0.80;;;8.60;99.90;;;;;;5034350;28;20193;-80
2023/12/25 04:31:26;;;;;;;2.60;1.00;;;8.60;99.90;;;;;;5033795;28;20196;-80
2023/12/25 04:34:14;;;;;;;3.97;0.80;;;8.60;99.90;;;;;;5033696;28;20203;-79
2023/12/25 04:37:02;;;;;;;3.33;0.90;;;8.50;99.90;;;;;;5033229;28;20232;-80
2023/12/25 04:39:49;;;;;;;2.70;1.00;;;8.40;99.90;;;;;;5034667;28;20664;-80
2023/12/25 04:42:37;;;;;;;2.73;1.20;;;8.40;99.90;;;;;;5034743;28;20611;-80
2023/12/25 04:45:24;;;;;;;1.77;0.90;;;8.40;99.90;;;;;;5033971;28;20199;-80
2023/12/25 04:48:12;;;;;;;2.87;0.80;;;8.40;99.90;;;;;;5033384;28;20196;-80
2023/12/25 04:51:00;;;;;;;2.33;0.70;;;8.40;99.90;;;;;;5034546;28;20228;-80
2023/12/25 04:53:47;;;;;;;2.13;0.70;;;8.40;99.90;;;;;;5033377;28;20409;-80
2023/12/25 04:56:35;;;;;;;4.07;1.73;;;8.40;99.90;;;;;;5034265;28;20247;-80
2023/12/25 04:59:23;;;;;;;2.20;0.70;;;8.40;99.90;;;;;;5033418;28;20195;-80
2023/12/25 05:02:10;;;;;;;4.57;1.10;;;8.40;99.90;;;;;;5033726;28;20580;-80
2023/12/25 05:04:58;;;;;;;2.77;0.80;;;8.40;99.90;;;;;;5033385;28;20231;-80
2023/12/25 05:07:45;;;;;;;2.00;0.87;;;8.40;99.90;;;;;;5033632;28;20602;-80
2023/12/25 05:10:33;;;;;;;2.63;1.00;;;8.50;99.90;;;;;;5033004;28;20214;-80
2023/12/25 05:13:20;;;;;;;3.73;0.97;;;8.50;99.90;;;;;;5033845;28;20223;-79
2023/12/25 05:16:08;;;;;;;3.63;1.00;;;8.50;99.90;;;;;;5034589;28;20195;-80
2023/12/25 05:18:55;;;;;;;1.20;0.80;;;8.50;99.90;;;;;;5033440;28;20200;-80
2023/12/25 05:21:43;;;;;;;2.93;1.00;;;8.50;99.90;;;;;;5032354;28;20349;-81
2023/12/25 05:24:31;;;;;;;2.17;1.13;;;8.60;99.90;;;;;;5033462;28;20262;-80
2023/12/25 05:27:21;;;;;;;3.57;1.07;;;8.60;99.90;;;;;;5030392;28;20239;-80
2023/12/25 05:30:10;;;;;;;1.80;1.13;;;8.70;99.90;;;;;;5033714;28;20206;-80
2023/12/25 05:32:58;;;;;;;2.07;1.10;;;8.60;99.90;;;;;;5032668;28;20663;-81
2023/12/25 05:35:46;;;;;;;2.10;1.23;;;8.70;99.90;;;;;;5045170;28;20196;-80
2023/12/25 05:38:33;;;;;;;4.33;1.20;;;8.70;99.90;;;;;;5033028;28;20193;-81
2023/12/25 05:41:21;;;;;;;2.57;1.00;;;8.80;99.90;;;;;;5031949;28;20226;-81
2023/12/25 05:44:09;;;;;;;3.43;1.40;;;8.80;99.90;;;;;;5030725;28;20365;-81
2023/12/25 05:46:56;;;;;;;3.43;1.13;;;8.90;99.90;;;;;;5032429;28;20199;-80
2023/12/25 05:49:44;;;;;;;1.87;1.00;;;8.80;99.90;;;;;;5031843;28;20196;-80
2023/12/25 05:52:32;;;;;;;2.23;1.00;;;8.80;99.90;;;;;;5032823;28;20221;-80
2023/12/25 05:55:20;;;;;;;2.47;0.90;;;8.80;99.90;;;;;;5033319;28;20197;-80
2023/12/25 05:58:07;;;;;;;2.07;1.07;;;8.70;99.90;;;;;;5032809;28;20302;-80
2023/12/25 06:00:55;;;;;;;4.67;1.00;;;8.70;99.90;;;;;;5032790;28;20298;-80
2023/12/25 06:03:43;;;;;;;1.17;0.83;;;8.70;99.90;;;;;;5031636;28;20215;-81
2023/12/25 06:06:30;;;;;;;3.70;1.20;;;8.60;99.90;;;;;;5031949;28;20227;-81
2023/12/25 06:09:18;;;;;;;2.27;0.87;;;8.60;99.90;;;;;;5032912;28;20720;-81
2023/12/25 06:12:06;;;;;;;1.30;0.97;;;8.50;99.90;;;;;;5031430;28;20215;-81
2023/12/25 06:14:53;;;;;;;1.90;1.20;;;8.50;99.90;;;;;;5033770;28;20284;-80
2023/12/25 06:17:41;;;;;;;4.77;1.13;;;8.50;99.90;;;;;;5032508;28;20284;-80
2023/12/25 06:20:29;;;;;;;3.13;1.40;;;8.60;99.90;;;;;;5032689;28;20192;-81
2023/12/25 06:23:16;;;;;;;5.77;1.40;;;8.70;99.90;;;;;;5032300;28;20548;-80
2023/12/25 06:26:04;;;;;;;2.47;1.00;;;8.80;99.90;;;;;;5032244;28;20241;-80
2023/12/25 06:28:51;;;;;;;2.00;1.10;;;8.80;99.90;;;;;;5032265;28;20271;-80
2023/12/25 06:31:38;;;;;;;2.60;1.10;;;8.80;99.90;;;;;;5031910;28;20216;-80
2023/12/25 06:34:26;;;;;;;2.50;0.93;;;8.80;99.90;;;;;;5032827;28;20318;-80
2023/12/25 06:37:13;;;;;;;1.93;1.00;;;8.90;99.90;;;;;;5031757;28;20201;-80
2023/12/25 06:40:01;;;;;;;2.20;1.03;;;8.90;99.90;;;;;;5032211;28;20197;-81
2023/12/25 06:42:48;;;;;;;2.27;0.90;;;8.90;99.90;;;;;;5031070;28;20286;-80
2023/12/25 06:45:35;;;;;;;4.20;1.10;;;8.90;99.90;;;;;;5031767;28;20668;-81
2023/12/25 06:48:23;;;;;;;3.23;1.23;;;8.90;99.90;;;;;;5032124;28;20197;-80
2023/12/25 06:51:11;;;;;;;2.70;1.20;;;8.90;99.90;;;;;;5032073;28;20198;-80
2023/12/25 06:53:58;;;;;;;3.53;1.10;;;8.90;99.90;;;;;;5031064;28;20196;-81
2023/12/25 06:56:46;;;;;;;5.63;1.10;;;8.80;99.90;;;;;;5030977;28;20350;-80
2023/12/25 06:59:33;;;;;;;3.00;1.10;;;8.80;99.90;;;;;;5031325;28;20202;-80
2023/12/25 07:02:23;;;;;;;3.23;1.20;;;8.80;99.90;;;;;;5031534;28;20195;-80
2023/12/25 07:05:11;;;;;;;5.93;1.27;;;8.80;99.90;;;;;;5030990;28;20231;-80
2023/12/25 07:08:00;;;;;;;3.37;1.20;;;8.90;99.90;;;;;;5032504;28;20568;-80
2023/12/25 07:10:48;;;;;;;2.03;1.20;;;8.90;99.90;;;;;;5030818;28;20220;-81
2023/12/25 07:13:36;;;;;;;3.60;1.13;;;9.00;99.90;;;;;;5030918;28;20196;-80
2023/12/25 07:16:25;;;;;;;3.20;0.90;;;8.90;99.90;;;;;;5031944;28;20830;-80
2023/12/25 07:19:12;;;;;;;2.50;1.00;;;9.00;99.90;;;;;;5035582;28;20664;-80
2023/12/25 07:22:01;;;;;;;3.87;1.10;;;9.00;99.90;;;;;;5035593;28;20212;-80
2023/12/25 07:24:48;;;;;;;5.67;0.90;;;9.00;99.90;;;;;;5036087;28;20256;-81
2023/12/25 07:27:36;;;;;;;4.57;1.10;;;9.10;99.90;;;;;;5035408;28;20220;-80
2023/12/25 07:30:24;;;;;;;3.17;0.80;;;9.10;99.90;;;;;;5035667;28;20201;-80
2023/12/25 07:33:11;;;;;;;1.87;0.80;;;9.10;99.90;;;;;;5035274;28;20264;-80
2023/12/25 07:35:59;;;;;;;4.97;1.40;;;9.20;99.90;;;;;;5036398;28;20573;-81
2023/12/25 07:38:46;;;;;;;3.07;0.90;;;9.10;99.90;;;;;;5034859;28;20201;-81
2023/12/25 07:41:34;;;;;;;3.67;1.10;;;9.00;99.90;;;;;;5032639;28;20224;-81
2023/12/25 07:44:22;;;;;;;2.23;0.80;;;9.10;99.90;;;;;;5034432;28;20223;-81
2023/12/25 07:47:09;;;;;;;3.13;1.00;;;9.10;99.90;;;;;;5035098;28;20247;-81
2023/12/25 07:49:56;;;;;;;3.40;0.97;;;9.20;99.90;;;;;;5035287;28;20204;-80
2023/12/25 07:52:44;;;;;;;2.73;0.90;;;9.20;99.90;;;;;;5034697;28;20201;-80
2023/12/25 07:55:33;;;;;;;3.53;1.00;;;9.30;99.90;;;;;;5034908;28;20206;-81
2023/12/25 07:58:21;;;;;;;4.83;0.90;;;9.30;99.90;;;;;;5033820;28;20659;-81
2023/12/25 08:01:10;;;;;;;4.60;1.07;;;9.30;99.90;;;;;;5034493;28;20197;-81
2023/12/25 08:03:57;;;;;;;2.30;1.00;;;9.30;99.90;;;;;;5034104;28;20227;-80
2023/12/25 08:06:45;;;;;;;4.63;1.20;;;9.40;99.90;;;;;;5035202;28;20236;-81
2023/12/25 08:09:35;;;;;;;2.67;0.90;;;9.30;99.90;;;;;;5034694;28;20202;-81
2023/12/25 08:12:23;;;;;;;4.60;1.20;;;9.40;99.90;;;;;;5034024;28;20743;-80
2023/12/25 08:15:11;;;;;;;3.30;1.13;;;9.40;99.90;;;;;;5034380;28;20203;-80
2023/12/25 08:17:59;;;;;;;3.73;1.20;;;9.50;99.90;;;;;;5032350;28;20197;-81
2023/12/25 08:20:48;;;;;;;3.27;1.00;;;9.40;99.90;;;;;;5035060;28;20202;-81
2023/12/25 08:23:36;;;;;;;5.43;1.33;;;9.40;99.90;;;;;;5034707;28;20201;-81
2023/12/25 08:26:23;;;;;;;2.93;1.13;;;9.30;99.90;;;;;;5033346;28;20588;-81
2023/12/25 08:29:11;;;;;;;3.30;1.10;;;9.30;99.90;;;;;;5032870;28;20279;-81
2023/12/25 08:31:59;;;;;;;2.47;1.10;;;9.20;99.90;;;;;;5034397;28;20203;-81
2023/12/25 08:34:47;;;;;;;8.43;1.80;;;9.10;99.90;;;;;;5034856;28;20711;-81
2023/12/25 08:37:34;;;;;;;4.30;1.20;;;9.20;99.90;;;;;;5033537;28;20223;-81
2023/12/25 08:40:22;;;;;;;5.50;1.50;;;9.20;99.90;;;;;;5033168;28;20600;-81
2023/12/25 08:43:09;;;;;;;4.57;1.20;;;9.20;99.90;;;;;;5033472;28;20678;-81
2023/12/25 08:45:57;;;;;;;5.40;1.20;;;9.20;99.90;;;;;;5034038;28;20221;-81
2023/12/25 08:48:47;;;;;;;5.67;1.20;;;9.30;99.90;;;;;;5032920;28;20286;-81
2023/12/25 08:51:38;;;;;;;4.70;1.10;;;9.30;99.90;;;;;;5033906;28;20242;-81
2023/12/25 08:54:25;;;;;;;5.27;1.27;;;9.40;99.90;;;;;;5033867;28;20202;-80
2023/12/25 08:57:12;;;;;;;4.37;1.20;;;9.40;99.90;;;;;;5034289;28;20567;-80
2023/12/25 09:00:00;;;;;;;4.20;1.23;;;9.40;99.90;;;;;;5033700;28;20194;-81
2023/12/25 09:02:47;;;;;;;3.83;1.20;;;9.50;99.90;;;;;;5034291;28;20281;-81
2023/12/25 09:05:35;;;;;;;5.43;1.20;;;9.60;99.90;;;;;;5032803;28;20237;-81
2023/12/25 09:08:23;;;;;;;3.47;1.27;;;9.60;99.90;;;;;;5033103;28;20203;-81
2023/12/25 09:11:11;;;;;;;3.87;1.20;;;9.70;99.90;;;;;;5031856;28;20350;-82
2023/12/25 09:13:59;;;;;;;4.70;1.07;;;9.70;99.90;;;;;;5032229;28;20190;-81
2023/12/25 09:16:47;;;;;;;5.33;1.37;;;9.80;99.90;;;;;;5033241;28;20645;-81
2023/12/25 09:19:34;;;;;;;5.93;1.10;;;9.80;99.90;;;;;;5033323;28;20201;-80
2023/12/25 09:22:24;;;;;;;3.03;1.40;;;9.90;99.90;;;;;;5031155;28;20594;-81
2023/12/25 09:25:12;;;;;;;5.53;1.23;;;10.00;99.90;;;;;;5032743;28;20302;-80
2023/12/25 09:27:59;;;;;;;5.10;1.10;;;10.00;99.90;;;;;;5033183;28;20204;-81
2023/12/25 09:30:47;;;;;;;2.47;1.10;;;10.00;99.90;;;;;;5033172;28;20196;-81
2023/12/25 09:33:34;;;;;;;4.17;1.30;;;10.10;99.90;;;;;;5034197;28;20244;-81
2023/12/25 09:36:24;;;;;;;3.47;1.20;;;10.10;99.90;;;;;;5032998;28;20198;-81
2023/12/25 09:39:11;;;;;;;3.00;1.20;;;10.10;99.90;;;;;;5032470;28;20299;-81
2023/12/25 09:41:59;;;;;;;3.63;1.33;;;10.10;99.90;;;;;;5032084;28;20226;-81
2023/12/25 09:44:54;;;;;;;4.30;1.40;;;10.10;99.90;;;;;;5032787;28;20359;-80
2023/12/25 09:47:42;;;;;;;3.40;1.20;;;10.20;99.90;;;;;;5032648;28;20202;-81
2023/12/25 09:50:31;;;;;;;4.87;1.30;;;10.20;99.90;;;;;;5034132;28;20204;-81
2023/12/25 09:53:19;;;;;;;4.43;1.30;;;10.30;99.90;;;;;;5032856;28;20199;-81
2023/12/25 09:56:12;;;;;;;3.60;1.30;;;10.30;99.90;;;;;;5032341;28;20257;-81
2023/12/25 09:59:00;;;;;;;4.40;1.50;;;10.40;99.90;;;;;;5031570;28;20212;-81
2023/12/25 10:01:49;;;;;;;4.77;1.50;;;10.40;99.90;;;;;;5032571;28;20234;-81
2023/12/25 10:04:40;;;;;;;4.07;1.50;;;10.30;99.90;;;;;;5032284;28;20221;-81
2023/12/25 10:07:27;;;;;;;4.77;1.17;;;10.40;99.90;;;;;;5032696;28;20645;-81
2023/12/25 10:10:15;;;;;;;4.57;1.30;;;10.40;99.90;;;;;;5030350;28;20223;-80
2023/12/25 10:13:02;;;;;;;2.20;1.20;;;10.40;99.90;;;;;;5032264;28;20633;-81
2023/12/25 10:15:50;;;;;;;3.03;1.10;;;10.40;99.90;;;;;;5031919;28;20208;-80
2023/12/25 10:18:38;;;;;;;4.60;1.50;;;10.50;99.90;;;;;;5032004;28;20327;-80
2023/12/25 10:21:26;;;;;;;2.80;1.10;;;10.50;99.90;;;;;;5031932;28;20193;-80
2023/12/25 10:24:14;;;;;;;4.83;1.43;;;10.60;99.90;;;;;;5031268;28;20199;-81
2023/12/25 10:27:09;;;;;;;4.27;1.20;;;10.50;99.90;;;;;;5032234;28;20239;-80
2023/12/25 10:29:59;;;;;;;2.70;1.20;;;10.60;99.90;;;;;;5032472;28;20203;-80
2023/12/25 10:32:48;;;;;;;4.03;1.60;;;10.50;99.90;;;;;;5032134;28;20321;-81
2023/12/25 10:35:37;;;;;;;5.03;1.40;;;10.50;99.90;;;;;;5033258;28;20192;-81
2023/12/25 10:38:42;;;;;;;4.80;1.33;;;10.40;99.90;;;;;;5033395;28;20335;-81
2023/12/25 10:41:34;;;;;;;4.33;1.40;;;10.50;99.90;;;;;;5031037;28;20315;-81
2023/12/25 10:44:21;;;;;;;4.57;1.33;;;10.40;99.90;;;;;;5031080;28;20467;-81
2023/12/25 10:47:11;;;;;;;3.50;1.30;;;10.40;99.90;;;;;;5032047;28;20206;-81
2023/12/25 10:50:00;;;;;;;3.13;1.30;;;10.40;99.90;;;;;;5031996;28;20276;-82
2023/12/25 10:52:51;;;;;;;3.13;1.20;;;10.40;99.90;;;;;;5031469;28;20253;-81
2023/12/25 10:55:44;;;;;;;3.87;1.40;;;10.40;99.90;;;;;;5037142;28;20198;-81
2023/12/25 10:58:31;;;;;;;4.00;1.60;;;10.60;99.90;;;;;;5035042;28;20288;-81
2023/12/25 11:01:30;;;;;;;2.67;1.30;;;10.50;99.90;;;;;;5035948;28;20204;-80
2023/12/25 11:04:18;;;;;;;3.43;1.50;;;10.60;99.90;;;;;;5036369;28;20185;-82
2023/12/25 11:07:06;;;;;;;3.47;1.27;;;10.50;99.90;;;;;;5034774;28;20201;-81
2023/12/25 11:09:54;;;;;;;4.53;1.40;;;10.50;99.90;;;;;;5035257;28;20204;-81
2023/12/25 11:12:42;;;;;;;3.70;1.53;;;10.40;99.90;;;;;;5036891;28;20207;-81
2023/12/25 11:15:30;;;;;;;4.63;1.40;;;10.30;99.90;;;;;;5035651;28;20193;-81
2023/12/25 11:18:18;;;;;;;4.87;1.40;;;10.40;99.90;;;;;;5034503;28;20322;-81
2023/12/25 11:21:12;;;;;;;4.47;1.50;;;10.40;99.90;;;;;;5034870;28;20202;-81
2023/12/25 11:24:00;;;;;;;4.03;1.40;;;10.30;99.90;;;;;;5035432;28;20775;-81
2023/12/25 11:26:48;;;;;;;2.77;1.40;;;10.30;99.90;;;;;;5034390;28;20304;-81
2023/12/25 11:29:36;;;;;;;5.13;1.53;;;10.40;99.90;;;;;;5035335;28;20194;-81
2023/12/25 11:32:23;;;;;;;3.97;1.60;;;10.50;99.90;;;;;;5035353;28;20814;-81
2023/12/25 11:35:13;;;;;;;3.17;1.60;;;10.50;99.90;;;;;;5034324;28;20658;-81
2023/12/25 11:38:25;;;;;;;3.07;1.47;;;10.50;99.90;;;;;;5035237;28;20579;-81
2023/12/25 11:41:18;;;;;;;4.87;1.57;;;10.40;99.90;;;;;;5034531;28;20218;-81
2023/12/25 11:44:06;;;;;;;4.00;1.40;;;10.40;99.90;;;;;;5035800;28;20217;-80
2023/12/25 11:46:59;;;;;;;4.97;1.50;;;10.40;99.90;;;;;;5035569;28;20202;-81
2023/12/25 11:49:46;;;;;;;6.13;1.70;;;10.40;99.90;;;;;;5035224;28;20261;-81
2023/12/25 11:53:00;;;;;;;2.40;1.40;;;10.40;99.90;;;;;;5034233;28;20194;-81
2023/12/25 11:55:48;;;;;;;3.37;1.53;;;10.40;99.90;;;;;;5035499;28;20221;-81
2023/12/25 11:58:35;;;;;;;3.60;1.30;;;10.40;99.90;;;;;;5035269;28;20281;-80
2023/12/25 12:01:23;;;;;;;7.83;1.80;;;10.40;99.90;;;;;;5034910;28;20249;-81
2023/12/25 12:04:10;;;;;;;2.87;1.40;;;10.40;99.90;;;;;;5033611;28;20254;-80
2023/12/25 12:06:58;;;;;;;3.47;1.53;;;10.40;99.90;;;;;;5035978;28;20250;-80
2023/12/25 12:09:45;;;;;;;4.43;1.80;;;10.40;99.90;;;;;;5034279;28;20221;-80
2023/12/25 12:12:33;;;;;;;4.00;1.10;;;10.40;99.90;;;;;;5034148;28;20218;-80
2023/12/25 12:15:21;;;;;;;4.40;1.20;;;9.10;99.90;;;;;;5034093;28;20219;-80
2023/12/25 12:18:08;;;;;;;2.43;1.00;;;8.30;99.90;;;;;;5034815;28;20274;-79
2023/12/25 12:20:56;;;;;;;4.17;0.80;;;7.60;99.90;;;;;;5034473;28;20206;-79
2023/12/25 12:23:44;;;;;;;1.90;1.00;;;7.20;99.90;;;;;;5034477;28;20198;-79
2023/12/25 12:26:31;;;;;;;3.60;1.40;;;7.00;99.90;;;;;;5035008;28;20234;-78
2023/12/25 12:29:19;;;;;;;3.50;1.07;;;6.80;99.90;;;;;;5034378;28;20192;-79
2023/12/25 12:32:08;;;;;;;2.47;0.90;;;6.70;99.90;;;;;;5033508;28;20195;-79
2023/12/25 12:34:55;;;;;;;3.93;1.17;;;6.70;99.90;;;;;;5034229;28;20235;-78
2023/12/25 12:37:43;;;;;;;2.63;0.90;;;6.70;99.90;;;;;;5033528;28;20191;-79
2023/12/25 12:40:31;;;;;;;3.63;1.33;;;6.70;99.90;;;;;;5033426;28;20203;-79
2023/12/25 12:43:21;;;;;;;2.80;1.23;;;6.70;99.90;;;;;;5034029;28;20260;-79
2023/12/25 12:46:15;;;;;;;3.33;1.13;;;6.70;99.90;;;;;;5035115;28;20245;-80
2023/12/25 12:49:03;;;;;;;1.77;1.20;;;6.80;99.90;;;;;;5034322;28;20191;-78
2023/12/25 12:51:50;;;;;;;4.43;1.23;;;6.80;99.90;;;;;;5033784;28;20192;-79
2023/12/25 12:54:38;;;;;;;2.93;1.17;;;6.80;99.90;;;;;;5032062;28;20192;-78
2023/12/25 12:57:25;;;;;;;3.93;1.30;;;6.80;99.90;;;;;;5033863;28;20688;-78
2023/12/25 13:00:13;;;;;;;4.17;1.47;;;6.90;99.90;;;;;;5034353;28;20195;-78
2023/12/25 13:03:00;;;;;;;5.13;1.63;;;6.80;99.90;;;;;;5034812;28;20197;-78
2023/12/25 13:05:48;;;;;;;4.33;1.67;;;6.90;99.90;;;;;;5033338;28;20251;-78
2023/12/25 13:08:35;;;;;;;3.83;1.70;;;6.90;99.90;;;;;;5032899;28;20199;-78
2023/12/25 13:11:25;;;;;;;3.70;1.70;;;7.00;99.90;;;;;;5033450;28;20218;-79
2023/12/25 13:14:13;;;;;;;3.97;1.53;;;7.20;99.90;;;;;;5034004;28;20193;-79
2023/12/25 13:17:01;;;;;;;5.37;1.70;;;7.50;99.90;;;;;;5033182;28;20197;-79
2023/12/25 13:19:48;;;;;;;4.70;1.60;;;7.50;99.90;;;;;;5033790;28;20195;-78
2023/12/25 13:22:37;;;;;;;4.17;1.60;;;7.50;99.90;;;;;;5033174;28;20680;-79
2023/12/25 13:25:25;;;;;;;9.67;1.60;;;7.70;99.90;;;;;;5033062;28;20212;-80
2023/12/25 13:28:13;;;;;;;4.40;1.57;;;7.90;99.90;;;;;;5033109;28;20199;-80
2023/12/25 13:31:00;;;;;;;3.50;1.40;;;8.10;99.90;;;;;;5032348;28;20188;-79
2023/12/25 13:33:48;;;;;;;2.87;1.53;;;8.20;99.90;;;;;;5032191;28;20191;-79
2023/12/25 13:36:35;;;;;;;4.33;1.53;;;8.10;99.90;;;;;;5030774;28;20731;-79
2023/12/25 13:39:23;;;;;;;5.17;1.60;;;8.00;99.90;;;;;;5034475;28;20205;-78
2023/12/25 13:42:12;;;;;;;6.13;1.73;;;7.90;99.90;;;;;;5033377;28;20230;-79
2023/12/25 13:44:59;;;;;;;5.10;1.73;;;7.80;99.90;;;;;;5032457;28;20489;-79
2023/12/25 13:47:49;;;;;;;3.70;1.40;;;7.70;99.90;;;;;;5032848;28;20196;-79
2023/12/25 13:50:38;;;;;;;2.97;1.40;;;7.70;99.90;;;;;;5031309;28;20207;-79
2023/12/25 13:53:27;;;;;;;3.87;1.40;;;7.80;99.90;;;;;;5032104;28;20202;-79
2023/12/25 13:56:15;;;;;;;3.90;1.50;;;7.70;99.90;;;;;;5018894;28;20692;-80
2023/12/25 13:59:06;;;;;;;3.83;1.73;;;7.60;99.90;;;;;;5032054;28;20233;-79
2023/12/25 14:01:54;;;;;;;3.70;1.57;;;7.60;99.90;;;;;;5031933;28;20247;-79
2023/12/25 14:04:41;;;;;;;6.17;1.97;;;7.60;99.90;;;;;;5032106;28;20261;-80
2023/12/25 14:07:29;;;;;;;6.63;1.70;;;7.60;99.90;;;;;;5031915;28;20195;-80
2023/12/25 14:10:18;;;;;;;4.47;1.53;;;7.60;99.90;;;;;;5032511;28;20211;-79
2023/12/25 14:13:05;;;;;;;5.57;2.00;;;7.60;99.90;;;;;;5032927;28;20196;-79
2023/12/25 14:15:52;;;;;;;7.40;1.80;;;7.60;99.90;;;;;;5032831;28;20317;-79
2023/12/25 14:18:40;;;;;;;6.80;1.70;;;7.70;99.90;;;;;;5030822;28;20195;-79
2023/12/25 14:21:27;;;;;;;5.30;1.97;;;7.70;99.90;;;;;;5032458;28;20195;-79
2023/12/25 14:24:15;;;;;;;5.50;1.83;;;7.70;99.90;;;;;;5032329;28;20199;-80
2023/12/25 14:27:05;;;;;;;5.13;1.87;;;7.70;99.90;;;;;;5031441;28;20603;-80
2023/12/25 14:29:52;;;;;;;7.10;1.90;;;7.70;99.90;;;;;;5031763;28;20656;-80
2023/12/25 14:32:40;;;;;;;6.13;2.13;;;7.60;99.90;;;;;;5032216;28;20196;-79
2023/12/25 14:35:29;;;;;;;8.67;1.73;;;7.60;99.90;;;;;;5030531;28;20235;-79
2023/12/25 14:38:17;;;;;;;5.20;1.80;;;7.50;99.90;;;;;;5030468;28;20187;-79
2023/12/25 14:41:06;;;;;;;4.50;1.60;;;7.50;99.90;;;;;;5031001;28;20222;-80
2023/12/25 14:43:53;;;;;;;5.87;1.77;;;7.50;99.90;;;;;;5030409;28;20214;-80
2023/12/25 14:46:41;;;;;;;4.47;1.70;;;7.60;99.90;;;;;;5029671;28;20215;-79